createdAt,value
2022-10-02T00:01:12.839Z,4.45
2022-10-02T00:04:24.424Z,3.35
2022-10-02T00:07:41.122Z,5.40
2022-10-02T00:10:56.851Z,3.97
2022-10-02T00:14:04.550Z,4.40
2022-10-02T00:17:07.678Z,4.62
2022-10-02T00:20:15.870Z,3.83
2022-10-02T00:23:26.715Z,4.12
2022-10-02T00:26:37.734Z,4.43
2022-10-02T00:29:49.126Z,3.50
2022-10-02T00:33:05.017Z,3.45
2022-10-02T00:36:30.710Z,4.53
2022-10-02T00:40:03.332Z,5.12
2022-10-02T00:43:36.533Z,3.83
2022-10-02T00:46:52.036Z,4.12
2022-10-02T00:50:21.749Z,5.70
2022-10-02T00:53:39.616Z,4.68
2022-10-02T00:56:51.099Z,5.62
2022-10-02T01:00:09.499Z,4.90
2022-10-02T01:03:19.264Z,4.40
2022-10-02T01:06:24.867Z,4.72
2022-10-02T01:09:30.507Z,4.45
2022-10-02T01:12:32.993Z,3.55
2022-10-02T01:15:44.042Z,5.57
2022-10-02T01:18:48.196Z,8.90
2022-10-02T01:21:55.382Z,4.15
2022-10-02T01:24:59.841Z,4.40
2022-10-02T01:28:02.765Z,3.87
2022-10-02T01:31:11.010Z,3.70
2022-10-02T01:34:13.729Z,4.47
2022-10-02T01:37:16.824Z,4.80
2022-10-02T01:40:28.966Z,4.35
2022-10-02T01:43:34.322Z,4.32
2022-10-02T01:46:45.501Z,4.77
2022-10-02T01:50:14.059Z,5.05
2022-10-02T01:53:26.445Z,5.45
2022-10-02T01:56:54.322Z,6.07
2022-10-02T02:00:09.821Z,3.80
2022-10-02T02:03:29.090Z,5.00
2022-10-02T02:06:50.345Z,4.00
2022-10-02T02:10:11.540Z,3.87
2022-10-02T02:13:30.898Z,4.57
2022-10-02T02:16:39.354Z,3.78
2022-10-02T02:19:57.402Z,6.10
2022-10-02T02:23:05.480Z,4.55
2022-10-02T02:26:12.587Z,6.30
2022-10-02T02:29:17.323Z,5.15
2022-10-02T02:32:23.575Z,5.40
2022-10-02T02:35:34.197Z,4.53
2022-10-02T02:38:40.415Z,5.47
2022-10-02T02:41:47.513Z,4.22
2022-10-02T02:45:01.131Z,5.15
2022-10-02T02:48:28.985Z,6.03
2022-10-02T02:51:36.879Z,5.83
2022-10-02T02:54:46.782Z,5.20
2022-10-02T02:57:55.376Z,5.28
2022-10-02T03:01:00.974Z,6.50
2022-10-02T03:04:03.625Z,7.62
2022-10-02T03:07:06.185Z,8.30
2022-10-02T03:10:16.900Z,7.12
2022-10-02T03:13:55.725Z,9.98
2022-10-02T03:17:27.632Z,6.05
2022-10-02T03:20:57.499Z,8.88
2022-10-02T03:24:00.039Z,6.47
2022-10-02T03:27:41.499Z,11.10
2022-10-02T03:30:44.652Z,5.85
2022-10-02T03:33:47.631Z,6.57
2022-10-02T03:36:50.375Z,5.75
2022-10-02T03:39:53.066Z,8.83
2022-10-02T03:42:58.521Z,5.50
2022-10-02T03:46:01.119Z,6.18
2022-10-02T03:49:03.743Z,7.10
2022-10-02T03:52:06.274Z,6.45
2022-10-02T03:55:21.028Z,5.97
2022-10-02T03:58:24.609Z,6.53
2022-10-02T04:01:38.641Z,8.57
2022-10-02T04:04:55.858Z,5.60
2022-10-02T04:08:02.503Z,6.87
2022-10-02T04:11:20.379Z,6.63
2022-10-02T04:14:36.135Z,6.57
2022-10-02T04:17:44.394Z,6.22
2022-10-02T04:20:55.706Z,6.10
2022-10-02T04:24:05.335Z,8.30
2022-10-02T04:27:08.838Z,8.93
2022-10-02T04:30:14.901Z,7.70
2022-10-02T04:33:22.993Z,11.48
2022-10-02T04:36:54.881Z,7.28
2022-10-02T04:40:12.725Z,6.57
2022-10-02T04:43:36.468Z,6.13
2022-10-02T04:47:20.512Z,7.60
2022-10-02T04:50:35.145Z,4.75
2022-10-02T04:53:57.738Z,6.30
2022-10-02T04:57:36.193Z,7.12
2022-10-02T05:01:06.797Z,7.60
2022-10-02T05:04:30.673Z,4.82
2022-10-02T05:07:41.645Z,5.57
2022-10-02T05:11:05.439Z,4.90
2022-10-02T05:14:18.184Z,4.55
2022-10-02T05:18:02.273Z,3.97
2022-10-02T05:21:22.617Z,4.15
2022-10-02T05:24:59.139Z,5.40
2022-10-02T05:28:14.163Z,4.45
2022-10-02T05:31:36.559Z,5.32
2022-10-02T05:35:07.153Z,4.80
2022-10-02T05:38:24.183Z,5.72
2022-10-02T05:41:38.884Z,5.95
2022-10-02T05:44:45.939Z,5.40
2022-10-02T05:47:50.087Z,6.30
2022-10-02T05:50:59.250Z,4.33
2022-10-02T05:54:06.375Z,5.80
2022-10-02T05:57:18.457Z,3.90
2022-10-02T06:00:25.982Z,5.62
2022-10-02T06:03:50.528Z,5.12
2022-10-02T06:06:55.695Z,4.60
2022-10-02T06:10:08.197Z,4.95
2022-10-02T06:13:25.408Z,4.20
2022-10-02T06:17:03.351Z,4.90
2022-10-02T06:20:17.262Z,5.80
2022-10-02T06:23:24.987Z,4.40
2022-10-02T06:26:29.579Z,6.85
2022-10-02T06:29:41.746Z,7.07
2022-10-02T06:32:48.973Z,5.20
2022-10-02T06:36:00.523Z,6.03
2022-10-02T06:39:39.141Z,4.63
2022-10-02T06:42:51.119Z,4.07
2022-10-02T06:46:08.630Z,5.95
2022-10-02T06:49:33.296Z,2.87
2022-10-02T06:53:09.546Z,4.30
2022-10-02T06:56:32.351Z,4.33
2022-10-02T07:00:12.492Z,5.05
2022-10-02T07:03:27.389Z,5.47
2022-10-02T07:06:41.783Z,5.07
2022-10-02T07:10:03.414Z,4.32
2022-10-02T07:13:20.691Z,3.83
2022-10-02T07:16:39.192Z,3.65
2022-10-02T07:19:58.475Z,5.35
2022-10-02T07:23:26.703Z,3.80
2022-10-02T07:26:49.703Z,3.87
2022-10-02T07:30:03.717Z,4.97
2022-10-02T07:33:30.156Z,3.80
2022-10-02T07:36:54.725Z,4.85
2022-10-02T07:40:20.325Z,5.82
2022-10-02T07:43:32.014Z,5.37
2022-10-02T07:47:08.702Z,6.80
2022-10-02T07:50:11.618Z,6.78
2022-10-02T07:53:32.503Z,4.32
2022-10-02T07:56:36.041Z,6.35
2022-10-02T07:59:43.584Z,3.97
2022-10-02T08:02:57.694Z,6.43
2022-10-02T08:06:03.469Z,7.78
2022-10-02T08:09:47.366Z,7.70
2022-10-02T08:13:20.725Z,5.95
2022-10-02T08:16:27.386Z,5.70
2022-10-02T08:19:50.038Z,5.30
2022-10-02T08:22:58.564Z,4.32
2022-10-02T08:26:35.332Z,4.15
2022-10-02T08:29:54.546Z,5.18
2022-10-02T08:32:57.194Z,5.72
2022-10-02T08:36:23.539Z,6.83
2022-10-02T08:40:08.055Z,6.87
2022-10-02T08:43:54.050Z,5.85
2022-10-02T08:47:07.614Z,4.87
2022-10-02T08:50:38.268Z,5.95
2022-10-02T08:54:05.492Z,5.07
2022-10-02T08:57:27.916Z,5.97
2022-10-02T09:00:49.906Z,8.57
2022-10-02T09:04:14.358Z,7.10
2022-10-02T09:07:34.597Z,4.40
2022-10-02T09:11:10.078Z,7.90
2022-10-02T09:14:34.895Z,5.45
2022-10-02T09:17:49.665Z,4.75
2022-10-02T09:21:23.308Z,6.12
2022-10-02T09:24:59.460Z,4.12
2022-10-02T09:28:28.397Z,5.43
2022-10-02T09:31:46.110Z,4.68
2022-10-02T09:35:02.193Z,4.60
2022-10-02T09:38:29.854Z,4.75
2022-10-02T09:42:10.361Z,4.47
2022-10-02T09:45:36.822Z,6.40
2022-10-02T09:48:52.213Z,4.10
2022-10-02T09:52:06.764Z,5.15
2022-10-02T09:55:53.349Z,5.18
2022-10-02T09:59:26.601Z,6.70
2022-10-02T10:03:16.998Z,9.37
2022-10-02T10:06:55.838Z,5.10
2022-10-02T10:10:19.928Z,6.65
2022-10-02T10:13:52.044Z,6.60
2022-10-02T10:17:04.277Z,6.00
2022-10-02T10:20:44.943Z,6.10
2022-10-02T10:23:54.934Z,5.65
2022-10-02T10:27:21.247Z,5.57
2022-10-02T10:30:53.578Z,7.40
2022-10-02T10:34:21.169Z,6.20
2022-10-02T10:38:14.555Z,5.10
2022-10-02T10:41:39.548Z,5.95
2022-10-02T10:45:23.504Z,5.22
2022-10-02T10:48:32.167Z,5.78
2022-10-02T10:52:04.317Z,6.62
2022-10-02T10:55:21.250Z,6.87
2022-10-02T10:58:45.478Z,4.95
2022-10-02T11:02:06.387Z,5.55
2022-10-02T11:05:48.094Z,7.30
2022-10-02T11:09:03.617Z,6.30
2022-10-02T11:12:24.419Z,7.00
2022-10-02T11:15:45.327Z,6.72
2022-10-02T11:19:21.702Z,3.83
2022-10-02T11:22:40.214Z,5.82
2022-10-02T11:26:10.905Z,5.95
2022-10-02T11:30:12.462Z,4.53
2022-10-02T11:33:24.489Z,5.75
2022-10-02T11:37:05.943Z,5.72
2022-10-02T11:40:45.177Z,6.25
2022-10-02T11:44:25.334Z,6.53
2022-10-02T11:47:34.878Z,5.30
2022-10-02T11:51:10.281Z,4.90
2022-10-02T11:54:48.816Z,5.40
2022-10-02T11:58:27.108Z,7.22
2022-10-02T12:02:05.776Z,5.22
2022-10-02T12:05:24.615Z,4.77
2022-10-02T12:09:04.441Z,4.87
2022-10-02T12:12:13.141Z,6.45
2022-10-02T12:16:10.593Z,5.50
2022-10-02T12:19:26.616Z,5.45
2022-10-02T12:23:00.931Z,5.37
2022-10-02T12:26:46.796Z,5.18
2022-10-02T12:30:08.401Z,6.95
2022-10-02T12:33:29.626Z,4.93
2022-10-02T12:36:44.395Z,5.03
2022-10-02T12:39:54.954Z,4.70
2022-10-02T12:43:18.424Z,5.50
2022-10-02T12:46:39.322Z,3.85
2022-10-02T12:49:59.142Z,6.68
2022-10-02T12:53:11.937Z,6.43
2022-10-02T12:56:39.689Z,3.87
2022-10-02T13:00:15.657Z,5.45
2022-10-02T13:03:44.097Z,6.82
2022-10-02T13:06:59.066Z,7.78
2022-10-02T13:10:16.971Z,6.05
2022-10-02T13:13:25.379Z,4.67
2022-10-02T13:16:49.779Z,6.10
2022-10-02T13:20:16.650Z,5.65
2022-10-02T13:23:32.270Z,5.12
2022-10-02T13:26:56.603Z,5.57
2022-10-02T13:30:15.638Z,6.13
2022-10-02T13:33:50.695Z,5.95
2022-10-02T13:37:22.400Z,6.62
2022-10-02T13:40:31.283Z,5.82
2022-10-02T13:43:59.652Z,4.47
2022-10-02T13:47:33.554Z,5.87
2022-10-02T13:50:46.829Z,5.00
2022-10-02T13:54:07.707Z,4.53
2022-10-02T13:57:16.279Z,6.28
2022-10-02T14:00:25.077Z,5.47
2022-10-02T14:03:46.295Z,5.07
2022-10-02T14:07:06.133Z,5.85
2022-10-02T14:10:24.064Z,4.87
2022-10-02T14:13:58.188Z,5.97
2022-10-02T14:17:22.723Z,6.70
2022-10-02T14:20:46.963Z,5.50
2022-10-02T14:24:15.865Z,4.22
2022-10-02T14:27:46.224Z,4.60
2022-10-02T14:31:11.157Z,5.50
2022-10-02T14:34:32.536Z,5.40
2022-10-02T14:37:38.189Z,4.40
2022-10-02T14:40:53.341Z,5.30
2022-10-02T14:44:11.026Z,6.50
2022-10-02T14:47:29.173Z,5.50
2022-10-02T14:50:34.637Z,5.30
2022-10-02T14:54:05.882Z,5.97
2022-10-02T14:57:33.840Z,6.87
2022-10-02T15:00:47.323Z,4.30
2022-10-02T15:04:05.102Z,4.30
2022-10-02T15:07:07.664Z,4.07
2022-10-02T15:10:23.192Z,5.67
2022-10-02T15:13:40.053Z,5.62
2022-10-02T15:17:17.495Z,5.37
2022-10-02T15:20:38.877Z,6.65
2022-10-02T15:23:44.725Z,5.60
2022-10-02T15:27:07.670Z,6.40
2022-10-02T15:30:27.643Z,6.03
2022-10-02T15:33:37.714Z,5.75
2022-10-02T15:36:57.311Z,5.78
2022-10-02T15:40:05.594Z,6.32
2022-10-02T15:43:12.246Z,5.73
2022-10-02T15:46:47.305Z,6.28
2022-10-02T15:50:08.741Z,5.80
2022-10-02T15:53:23.397Z,7.37
2022-10-02T15:56:28.870Z,7.32
2022-10-02T15:59:48.339Z,8.20
2022-10-02T16:03:39.047Z,7.50
2022-10-02T16:07:07.397Z,7.03
2022-10-02T16:10:26.086Z,7.18
2022-10-02T16:13:48.503Z,8.40
2022-10-02T16:16:57.074Z,6.83
2022-10-02T16:20:09.030Z,7.62
2022-10-02T16:23:28.682Z,8.15
2022-10-02T16:26:56.340Z,6.32
2022-10-02T16:30:21.376Z,9.48
2022-10-02T16:33:48.417Z,5.53
2022-10-02T16:36:53.298Z,6.43
2022-10-02T16:40:03.440Z,6.50
2022-10-02T16:43:32.607Z,6.50
2022-10-02T16:47:04.926Z,5.93
2022-10-02T16:50:20.599Z,6.50
2022-10-02T16:53:29.562Z,7.62
2022-10-02T16:56:41.271Z,6.82
2022-10-02T17:00:06.881Z,6.45
2022-10-02T17:03:35.912Z,8.18
2022-10-02T17:06:55.004Z,7.77
2022-10-02T17:10:07.438Z,6.50
2022-10-02T17:13:10.059Z,6.78
2022-10-02T17:16:21.151Z,6.87
2022-10-02T17:19:34.564Z,6.40
2022-10-02T17:23:01.436Z,8.63
2022-10-02T17:26:33.793Z,5.93
2022-10-02T17:29:53.627Z,6.32
2022-10-02T17:33:08.093Z,5.15
2022-10-02T17:36:24.866Z,5.97
2022-10-02T17:39:49.480Z,5.20
2022-10-02T17:43:03.980Z,4.85
2022-10-02T17:46:28.601Z,5.37
2022-10-02T17:50:05.071Z,6.50
2022-10-02T17:53:38.835Z,7.25
2022-10-02T17:56:51.971Z,6.10
2022-10-02T18:00:27.893Z,6.07
2022-10-02T18:03:37.322Z,6.87
2022-10-02T18:06:50.240Z,6.62
2022-10-02T18:10:20.413Z,7.95
2022-10-02T18:13:51.818Z,10.03
2022-10-02T18:17:06.689Z,9.15
2022-10-02T18:20:34.378Z,7.25
2022-10-02T18:23:58.499Z,7.40
2022-10-02T18:27:28.563Z,7.82
2022-10-02T18:30:43.935Z,8.23
2022-10-02T18:33:50.943Z,6.75
2022-10-02T18:37:22.320Z,7.65
2022-10-02T18:40:37.212Z,7.18
2022-10-02T18:43:52.155Z,8.05
2022-10-02T18:47:26.871Z,9.63
2022-10-02T18:50:33.955Z,8.75
2022-10-02T18:53:39.703Z,9.60
2022-10-02T18:57:00.978Z,9.18
2022-10-02T19:00:22.242Z,10.70
2022-10-02T19:03:38.596Z,10.70
2022-10-02T19:07:03.668Z,8.90
2022-10-02T19:10:32.449Z,8.07
2022-10-02T19:13:39.566Z,8.80
2022-10-02T19:17:11.559Z,7.75
2022-10-02T19:20:35.615Z,10.63
2022-10-02T19:23:41.628Z,9.25
2022-10-02T19:26:52.560Z,8.82
2022-10-02T19:29:58.424Z,8.68
2022-10-02T19:33:08.223Z,7.50
2022-10-02T19:36:17.371Z,8.43
2022-10-02T19:39:30.801Z,7.35
2022-10-02T19:42:44.809Z,8.98
2022-10-02T19:45:55.032Z,8.38
2022-10-02T19:48:59.546Z,8.77
2022-10-02T19:52:03.413Z,9.37
2022-10-02T19:55:21.869Z,10.30
2022-10-02T19:58:58.817Z,9.30
2022-10-02T20:02:04.685Z,9.85
2022-10-02T20:05:08.919Z,9.60
2022-10-02T20:08:21.655Z,8.67
2022-10-02T20:11:39.328Z,7.62
2022-10-02T20:14:45.140Z,8.65
2022-10-02T20:17:47.670Z,8.52
2022-10-02T20:20:52.052Z,11.40
2022-10-02T20:23:57.535Z,8.10
2022-10-02T20:27:06.668Z,7.53
2022-10-02T20:30:16.934Z,8.52
2022-10-02T20:33:43.508Z,8.00
2022-10-02T20:37:13.630Z,8.25
2022-10-02T20:40:23.360Z,7.50
2022-10-02T20:43:42.564Z,6.72
2022-10-02T20:47:13.112Z,6.28
2022-10-02T20:50:45.021Z,6.37
2022-10-02T20:54:12.596Z,7.12
2022-10-02T20:57:38.141Z,6.80
2022-10-02T21:00:54.751Z,6.10
2022-10-02T21:04:13.475Z,6.43
2022-10-02T21:07:36.304Z,5.70
2022-10-02T21:11:02.314Z,6.35
2022-10-02T21:14:21.948Z,6.10
2022-10-02T21:17:44.719Z,5.20
2022-10-02T21:21:06.235Z,6.65
2022-10-02T21:24:33.908Z,5.60
2022-10-02T21:27:42.594Z,5.95
2022-10-02T21:31:04.343Z,5.50
2022-10-02T21:34:31.206Z,4.90
2022-10-02T21:37:47.482Z,4.22
2022-10-02T21:41:03.295Z,4.93
2022-10-02T21:44:24.552Z,5.70
2022-10-02T21:47:53.332Z,6.87
2022-10-02T21:51:23.028Z,5.22
2022-10-02T21:54:28.589Z,5.85
2022-10-02T21:58:19.628Z,5.85
2022-10-02T22:01:29.421Z,5.35
2022-10-02T22:04:47.224Z,7.27
2022-10-02T22:08:02.120Z,6.05
2022-10-02T22:11:12.366Z,5.45
2022-10-02T22:15:04.315Z,5.93
2022-10-02T22:18:20.476Z,6.53
2022-10-02T22:21:24.043Z,6.27
2022-10-02T22:24:48.139Z,7.20
2022-10-02T22:27:53.725Z,6.30
2022-10-02T22:31:02.969Z,6.85
2022-10-02T22:34:25.617Z,5.55
2022-10-02T22:37:44.511Z,5.70
2022-10-02T22:40:48.501Z,5.28
2022-10-02T22:43:52.203Z,4.60
2022-10-02T22:47:00.890Z,6.00
2022-10-02T22:50:08.343Z,5.95
2022-10-02T22:53:32.368Z,5.87
2022-10-02T22:56:42.885Z,5.85
2022-10-02T22:59:59.191Z,5.65
2022-10-02T23:03:12.509Z,6.65
2022-10-02T23:06:35.510Z,6.30
2022-10-02T23:09:40.243Z,5.97
2022-10-02T23:12:56.423Z,5.00
2022-10-02T23:16:08.063Z,3.75
2022-10-02T23:19:32.747Z,3.25
2022-10-02T23:22:40.073Z,3.30
2022-10-02T23:25:54.107Z,4.13
2022-10-02T23:29:29.579Z,7.10
2022-10-02T23:32:59.636Z,4.68
2022-10-02T23:36:15.714Z,6.05
2022-10-02T23:39:52.239Z,6.62
2022-10-02T23:42:58.591Z,5.03
2022-10-02T23:46:08.487Z,5.03
2022-10-02T23:49:13.010Z,5.75
2022-10-02T23:52:43.548Z,4.65
2022-10-02T23:56:12.292Z,4.72
2022-10-02T23:59:27.105Z,4.97
